createdAt,value
2019-05-29T09:59:16.448Z,37.36
2019-05-29T10:04:19.247Z,39.64
2019-05-29T10:09:21.341Z,41.29
2019-05-29T10:14:23.479Z,41.33
2019-05-29T10:19:25.656Z,41.64
2019-05-29T10:24:32.046Z,42.07
2019-05-29T10:29:32.115Z,41.72
2019-05-29T10:34:34.207Z,41.89
2019-05-29T10:39:36.754Z,41.57
2019-05-29T10:44:38.766Z,41.76
2019-05-29T10:49:41.000Z,42.00
2019-05-29T10:54:44.062Z,42.24
2019-05-29T10:59:48.729Z,41.67
2019-05-29T11:04:55.039Z,41.88
2019-05-29T11:09:56.284Z,41.15
2019-05-29T11:14:58.499Z,41.43
2019-05-29T11:20:00.688Z,41.04
2019-05-29T11:25:21.065Z,40.54
2019-05-29T11:30:08.774Z,39.80
2019-05-29T11:35:11.352Z,40.47
2019-05-29T11:40:13.775Z,40.10
2019-05-29T11:45:18.094Z,40.10
2019-05-29T11:50:20.325Z,40.67
2019-05-29T11:55:23.025Z,40.38
2019-05-29T12:00:25.459Z,39.93
2019-05-29T12:05:27.734Z,39.83
2019-05-29T12:10:29.925Z,39.34
2019-05-29T12:15:32.295Z,39.00
2019-05-29T12:20:34.492Z,39.11
2019-05-29T12:25:36.505Z,39.19
2019-05-29T12:30:40.028Z,38.65
2019-05-29T12:35:42.901Z,39.29
2019-05-29T12:40:45.950Z,39.19
2019-05-29T12:45:47.958Z,38.78
2019-05-29T12:50:50.680Z,38.29
2019-05-29T12:55:53.990Z,37.64
2019-05-29T13:00:56.473Z,37.57
2019-05-29T13:05:58.672Z,38.02
2019-05-29T13:11:00.632Z,37.15
2019-05-29T13:16:03.103Z,36.64
2019-05-29T13:21:06.113Z,36.80
2019-05-29T13:26:08.188Z,36.85
2019-05-29T13:31:12.215Z,36.92
2019-05-29T13:36:14.454Z,37.20
2019-05-29T13:41:16.445Z,37.40
2019-05-29T13:46:19.857Z,37.57
2019-05-29T13:51:22.208Z,36.98
2019-05-29T13:56:24.540Z,35.96
2019-05-29T14:01:26.820Z,35.94
2019-05-29T14:06:29.267Z,36.45
2019-05-29T14:11:31.333Z,35.80
2019-05-29T14:16:34.298Z,35.56
2019-05-29T14:21:36.441Z,35.01
2019-05-29T14:26:38.344Z,35.20
2019-05-29T14:31:41.592Z,35.33
2019-05-29T14:36:44.122Z,34.39
2019-05-29T14:41:46.349Z,34.44
2019-05-29T14:46:48.442Z,34.43
2019-05-29T14:51:50.405Z,35.61
2019-05-29T14:56:52.498Z,35.88
2019-05-29T15:01:54.458Z,35.64
2019-05-29T15:06:56.643Z,35.47
2019-05-29T15:11:59.829Z,35.43
2019-05-29T15:17:01.906Z,34.71
2019-05-29T15:22:05.002Z,34.70
2019-05-29T15:27:07.908Z,34.12
2019-05-29T15:34:28.585Z,34.69
2019-05-29T15:39:31.271Z,34.79
2019-05-29T15:44:34.393Z,34.79
2019-05-29T15:49:36.502Z,34.67
2019-05-29T15:54:39.078Z,34.36
2019-05-29T15:59:41.154Z,33.60
2019-05-29T16:04:44.799Z,33.52
2019-05-29T16:09:47.403Z,33.86
2019-05-29T16:14:50.313Z,34.01
2019-05-29T16:19:52.322Z,33.79
2019-05-29T16:24:54.471Z,34.73
2019-05-29T16:29:56.546Z,35.89
2019-05-29T16:34:58.972Z,36.16
2019-05-29T16:40:01.195Z,36.30
2019-05-29T16:45:05.302Z,36.55
2019-05-29T16:50:08.550Z,35.70
2019-05-29T16:55:12.947Z,35.45
2019-05-29T17:00:17.627Z,35.27
2019-05-29T17:05:20.484Z,34.98
2019-05-29T17:10:34.207Z,35.03
2019-05-29T17:15:36.308Z,35.14
2019-05-29T17:20:40.415Z,35.00
2019-05-29T17:25:42.522Z,34.95
2019-05-29T17:30:44.650Z,34.58
2019-05-29T17:35:46.764Z,34.63
2019-05-29T17:40:48.972Z,34.60
2019-05-29T17:45:51.483Z,34.29
2019-05-29T17:50:53.605Z,34.82
2019-05-29T17:55:55.805Z,35.31
2019-05-29T18:00:58.225Z,35.73
2019-05-29T18:06:00.347Z,36.43
2019-05-29T18:11:02.747Z,36.48
2019-05-29T18:16:04.963Z,36.71
2019-05-29T18:21:07.097Z,36.77
2019-05-29T18:26:09.258Z,36.81
2019-05-29T18:31:11.318Z,36.95
2019-05-29T18:36:14.473Z,37.11
2019-05-29T18:41:17.343Z,37.17
2019-05-29T18:46:21.035Z,37.29
2019-05-29T18:51:24.422Z,37.60
2019-05-29T18:56:28.033Z,37.73
2019-05-29T19:01:31.641Z,37.94
2019-05-29T19:06:34.038Z,38.88
2019-05-29T19:11:36.651Z,39.20
2019-05-29T19:16:39.686Z,39.63
2019-05-29T19:21:42.074Z,39.65
2019-05-29T19:26:44.200Z,39.80
2019-05-29T19:31:47.003Z,40.41
2019-05-29T19:36:49.279Z,40.42
2019-05-29T19:41:51.904Z,40.46
2019-05-29T19:46:54.440Z,41.18
2019-05-29T19:51:56.596Z,41.70
2019-05-29T19:56:58.915Z,42.05
2019-05-29T20:02:01.009Z,41.99
2019-05-29T20:07:04.789Z,42.53
2019-05-29T20:12:06.926Z,41.78
2019-05-29T20:17:08.946Z,41.05
2019-05-29T20:22:11.130Z,41.18
2019-05-29T20:27:13.543Z,41.26
2019-05-29T20:32:15.912Z,41.17
2019-05-29T20:37:18.020Z,41.09
2019-05-29T20:42:20.056Z,41.29
2019-05-29T20:47:22.135Z,41.43
2019-05-29T20:52:24.603Z,42.04
2019-05-29T20:57:26.764Z,42.42
2019-05-29T21:02:29.250Z,44.07
2019-05-29T21:07:32.512Z,44.65
2019-05-29T21:12:35.206Z,44.97
2019-05-29T21:22:38.598Z,44.30
2019-05-29T21:27:45.430Z,44.29
2019-05-29T21:38:42.343Z,45.21
2019-05-29T21:43:44.801Z,46.03
2019-05-29T21:48:47.534Z,46.30
2019-05-29T21:53:49.942Z,46.42
2019-05-29T21:59:02.384Z,46.61
2019-05-29T22:03:57.772Z,46.96
2019-05-29T22:08:59.882Z,46.97
2019-05-29T22:14:01.986Z,46.75
2019-05-29T22:19:04.419Z,46.55
2019-05-29T22:24:07.976Z,46.54
2019-05-29T22:29:17.818Z,46.86
2019-05-29T22:34:14.272Z,47.18
2019-05-29T22:39:16.311Z,47.39
2019-05-29T22:44:18.360Z,47.97
2019-05-29T22:49:20.585Z,48.44
2019-05-29T22:54:22.648Z,48.41
2019-05-29T22:59:32.008Z,48.19
2019-05-29T23:04:28.927Z,48.44
2019-05-29T23:09:31.160Z,48.05
2019-05-29T23:14:33.410Z,48.50
2019-05-29T23:19:35.595Z,48.82
2019-05-29T23:24:38.723Z,48.53
2019-05-29T23:29:48.891Z,48.21
2019-05-29T23:34:44.848Z,48.43
2019-05-29T23:39:46.868Z,48.78
2019-05-29T23:44:51.921Z,48.46
2019-05-29T23:49:53.610Z,49.06
2019-05-29T23:54:55.801Z,48.98
